Time;durP1;ratioP1;P1;durP2;ratioP2;P2;SDS_P1;SDS_P2;PMS_P1;PMS_P2;Temp;Humidity;BMP_temperature;BMP_pressure;BME280_temperature;BME280_humidity;BME280_pressure;Samples;Min_cycle;Max_cycle;Signal;HPM_P1;HPM_P2
2023/08/26 00:02:26;;;;;;;7.57;6.77;;;;;;;;;;5112599;28;20451;-87
2023/08/26 00:04:52;;;;;;;7.95;7.15;;;20.20;1.00;;;;;;5104208;28;20410;-87
2023/08/26 00:07:17;;;;;;;8.80;7.90;;;20.60;1.00;;;;;;5104857;28;20429;-87
2023/08/26 00:09:43;;;;;;;9.00;7.90;;;20.70;1.00;;;;;;5102395;28;20393;-86
2023/08/26 00:12:09;;;;;;;9.90;8.75;;;;;;;;;;5104138;28;20546;-87
2023/08/26 00:14:35;;;;;;;9.55;7.90;;;;;;;;;;5102957;28;20394;-87
2023/08/26 00:17:01;;;;;;;8.88;7.47;;;;;;;;;;5105367;28;20405;-86
2023/08/26 00:19:26;;;;;;;9.10;8.20;;;20.60;1.00;;;;;;5096937;28;20380;-87
2023/08/26 00:21:52;;;;;;;8.90;8.10;;;20.50;1.00;;;;;;5081538;28;20748;-87
2023/08/26 00:24:18;;;;;;;8.40;7.60;;;;;;;;;;5082049;28;20496;-87
2023/08/26 00:26:44;;;;;;;9.43;8.30;;;;;;;;;;5081717;28;20432;-87
2023/08/26 00:29:10;;;;;;;9.27;8.38;;;20.00;1.00;;;;;;5081738;28;20501;-87
2023/08/26 00:31:36;;;;;;;7.93;7.13;;;;;;;;;;5100764;28;20390;-87
2023/08/26 00:34:03;;;;;;;8.40;7.53;;;;;;;;;;5106321;28;20382;-88
2023/08/26 00:36:30;;;;;;;8.43;7.63;;;20.40;1.00;;;;;;5106485;28;20385;-87
2023/08/26 00:38:56;;;;;;;8.75;7.38;;;;;;;;;;5108963;28;20393;-87
2023/08/26 00:41:22;;;;;;;9.50;8.45;;;;;;;;;;5094027;28;20379;-88
2023/08/26 00:43:47;;;;;;;8.95;8.05;;;20.70;1.00;;;;;;5089482;28;20942;-87
2023/08/26 00:46:14;;;;;;;9.57;8.50;;;20.40;1.00;;;;;;5085342;28;20922;-86
2023/08/26 00:48:39;;;;;;;10.98;8.50;;;20.80;2.90;;;;;;5092358;22;20442;-84
2023/08/26 00:51:05;;;;;;;9.60;8.67;;;22.20;1.00;;;;;;5072366;28;20391;-84
2023/08/26 00:53:32;;;;;;;10.47;9.37;;;20.00;1.00;;;;;;5071877;28;20905;-84
2023/08/26 00:55:59;;;;;;;10.00;9.00;;;20.10;1.00;;;;;;5071104;28;20494;-84
2023/08/26 00:58:25;;;;;;;10.65;9.57;;;20.20;1.00;;;;;;5070621;28;20468;-84
2023/08/26 01:00:52;;;;;;;11.32;8.90;;;20.60;3.40;;;;;;5053923;28;20386;-84
2023/08/26 01:03:18;;;;;;;10.80;9.80;;;20.20;1.00;;;;;;5052712;28;20436;-84
2023/08/26 01:05:43;;;;;;;11.40;10.20;;;20.70;1.00;;;;;;5052147;28;20754;-84
2023/08/26 01:08:10;;;;;;;10.70;9.60;;;20.30;1.00;;;;;;5050775;28;20380;-83
2023/08/26 01:11:07;;;;;;;10.83;9.63;;;20.10;1.00;;;;;;5050784;28;20522;-84
2023/08/26 01:14:01;;;;;;;10.20;9.20;;;20.40;1.00;;;;;;5031089;28;20781;-84
2023/08/26 01:16:28;;;;;;;10.27;9.37;;;20.60;2.70;;;;;;5042490;28;20534;-83
2023/08/26 01:18:55;;;;;;;11.23;9.00;;;20.90;1.00;;;;;;5051516;28;20393;-84
2023/08/26 01:21:27;;;;;;;10.65;9.00;;;20.30;1.00;;;;;;5055800;28;20486;-83
2023/08/26 01:23:53;;;;;;;10.23;9.27;;;20.20;1.00;;;;;;5051956;28;20939;-84
2023/08/26 01:26:19;;;;;;;10.18;9.18;;;20.90;1.00;;;;;;5050535;28;20394;-83
2023/08/26 01:28:44;;;;;;;9.70;8.70;;;20.10;1.00;;;;;;5051811;28;20381;-84
2023/08/26 01:31:13;;;;;;;9.20;8.30;;;20.30;1.00;;;;;;5050784;28;20416;-83
2023/08/26 01:33:48;;;;;;;9.15;8.23;;;19.90;1.00;;;;;;5066018;28;20411;-84
2023/08/26 01:36:17;;;;;;;9.10;8.20;;;20.90;1.00;;;;;;5071840;28;20936;-83
2023/08/26 01:38:45;;;;;;;8.00;7.28;;;20.60;1.00;;;;;;5069989;28;20898;-83
2023/08/26 01:41:14;;;;;;;8.75;7.95;;;22.10;1.00;;;;;;5059275;28;20424;-84
2023/08/26 01:43:40;;;;;;;11.13;8.18;;;22.90;1.00;;;;;;5056615;28;20476;-83
2023/08/26 01:46:05;;;;;;;8.20;7.40;;;20.30;1.00;;;;;;5058646;28;20889;-84
2023/08/26 01:48:31;;;;;;;8.00;7.18;;;20.80;1.00;;;;;;5057304;28;20793;-83
2023/08/26 01:50:57;;;;;;;8.97;7.20;;;20.60;1.00;;;;;;5059162;28;20379;-83
2023/08/26 01:53:22;;;;;;;8.00;7.20;;;21.00;1.00;;;;;;5062602;28;20782;-84
2023/08/26 01:55:48;;;;;;;9.70;8.80;;;21.40;1.00;;;;;;5050125;28;20883;-83
2023/08/26 01:58:13;;;;;;;9.40;7.00;;;20.60;1.00;;;;;;5049814;28;20730;-83
2023/08/26 02:00:38;;;;;;;6.90;6.30;;;20.20;1.00;;;;;;5051101;28;20393;-84
2023/08/26 02:03:04;;;;;;;6.80;6.20;;;20.80;1.00;;;;;;5056262;28;20404;-83
2023/08/26 02:05:30;;;;;;;7.50;6.80;;;20.30;1.00;;;;;;5071549;28;20380;-84
2023/08/26 02:07:55;;;;;;;8.60;6.70;;;20.50;1.00;;;;;;5071125;28;20760;-83
2023/08/26 02:10:21;;;;;;;9.30;6.90;;;20.60;1.00;;;;;;5069569;28;20415;-83
2023/08/26 02:12:46;;;;;;;6.80;6.10;;;21.10;1.00;;;;;;5055743;28;20427;-83
2023/08/26 02:15:12;;;;;;;9.23;6.53;;;20.60;1.00;;;;;;5051303;28;20757;-83
2023/08/26 02:17:37;;;;;;;6.88;6.18;;;20.70;1.00;;;;;;5051151;28;20387;-83
2023/08/26 02:20:04;;;;;;;8.53;6.60;;;20.30;1.00;;;;;;5049325;28;20438;-83
2023/08/26 02:22:30;;;;;;;7.20;6.30;;;20.70;1.00;;;;;;5054127;28;20900;-83
2023/08/26 02:24:55;;;;;;;7.50;6.80;;;20.70;1.00;;;;;;5060758;28;20433;-83
2023/08/26 02:27:21;;;;;;;7.90;7.17;;;20.30;1.00;;;;;;5070572;28;20403;-83
2023/08/26 02:29:46;;;;;;;9.40;6.50;;;20.30;1.00;;;;;;5069269;28;20879;-83
2023/08/26 02:32:13;;;;;;;7.38;6.63;;;20.30;1.00;;;;;;5070894;28;20376;-83
2023/08/26 02:34:38;;;;;;;6.90;6.18;;;20.50;1.00;;;;;;5062455;28;20879;-83
2023/08/26 02:37:04;;;;;;;7.38;6.53;;;20.50;1.00;;;;;;5050471;28;20413;-84
2023/08/26 02:39:29;;;;;;;7.60;6.10;;;22.50;1.00;;;;;;5054505;28;20384;-83
2023/08/26 02:41:55;;;;;;;8.73;6.35;;;20.60;1.00;;;;;;5070447;28;20487;-83
2023/08/26 02:44:20;;;;;;;6.30;5.70;;;21.50;1.00;;;;;;5053096;28;20929;-83
2023/08/26 02:46:46;;;;;;;9.10;6.40;;;20.70;1.00;;;;;;5049138;28;20384;-83
2023/08/26 02:49:11;;;;;;;6.43;5.83;;;20.80;1.00;;;;;;5052203;28;20381;-83
2023/08/26 02:51:37;;;;;;;8.00;6.55;;;20.40;1.00;;;;;;5069752;28;20380;-83
2023/08/26 02:54:02;;;;;;;6.37;5.67;;;22.10;1.00;;;;;;5084224;28;20387;-83
2023/08/26 02:56:28;;;;;;;7.05;6.30;;;20.60;1.00;;;;;;5094814;28;20392;-83
2023/08/26 02:58:53;;;;;;;9.10;7.43;;;20.40;1.00;;;;;;5085180;28;20890;-82
2023/08/26 03:01:19;;;;;;;7.00;6.30;;;20.00;3.30;;;;;;5069685;28;20392;-83
2023/08/26 03:03:45;;;;;;;9.10;6.97;;;20.20;1.00;;;;;;5050539;28;20494;-83
2023/08/26 03:06:11;;;;;;;6.75;6.05;;;20.10;3.10;;;;;;5050019;28;20777;-83
2023/08/26 03:08:37;;;;;;;6.80;5.75;;;21.70;1.00;;;;;;5050324;28;20436;-83
2023/08/26 03:11:04;;;;;;;6.73;6.03;;;22.30;1.00;;;;;;5057265;28;20798;-83
2023/08/26 03:13:31;;;;;;;7.05;6.35;;;20.50;1.00;;;;;;5070616;28;20412;-83
2023/08/26 03:15:57;;;;;;;7.50;6.70;;;20.70;1.00;;;;;;5068585;28;20394;-84
2023/08/26 03:18:23;;;;;;;11.93;6.93;;;20.20;1.00;;;;;;5068777;28;20395;-83
2023/08/26 03:20:49;;;;;;;9.67;7.00;;;19.60;1.00;;;;;;5063842;28;20729;-83
2023/08/26 03:23:15;;;;;;;7.93;6.70;;;19.50;1.00;;;;;;5050273;28;20401;-84
2023/08/26 03:25:41;;;;;;;8.17;7.10;;;20.90;3.60;;;;;;5058720;28;20480;-84
2023/08/26 03:28:10;;;;;;;8.90;7.53;;;19.50;1.00;;;;;;5076214;28;20395;-83
2023/08/26 03:30:36;;;;;;;8.32;7.57;;;19.70;1.00;;;;;;5086736;28;20383;-83
2023/08/26 03:33:02;;;;;;;8.70;7.32;;;19.40;5.10;;;;;;5084364;28;20871;-83
2023/08/26 03:35:28;;;;;;;8.15;7.38;;;19.80;1.00;;;;;;5074780;28;20387;-84
2023/08/26 03:37:54;;;;;;;10.60;7.93;;;19.80;1.00;;;;;;5061320;28;20903;-83
2023/08/26 03:40:22;;;;;;;9.00;7.15;;;22.50;7.10;;;;;;5049872;28;20393;-83
2023/08/26 03:42:50;;;;;;;8.40;7.60;;;21.80;1.00;;;;;;5062711;28;20409;-83
2023/08/26 03:45:16;;;;;;;9.77;7.30;;;19.90;1.00;;;;;;5049737;28;20386;-83
2023/08/26 03:47:41;;;;;;;7.88;7.07;;;19.70;1.00;;;;;;5051202;28;20496;-83
2023/08/26 03:50:07;;;;;;;9.10;8.20;;;21.30;3.10;;;;;;5050120;28;20381;-82
2023/08/26 03:52:33;;;;;;;9.93;6.95;;;19.50;1.00;;;;;;5065584;28;20415;-83
2023/08/26 03:54:59;;;;;;;10.00;7.35;;;19.70;1.00;;;;;;5073923;28;20391;-82
2023/08/26 03:57:24;;;;;;;7.63;6.83;;;19.60;1.00;;;;;;5056051;28;20413;-83
2023/08/26 03:59:50;;;;;;;8.48;7.68;;;19.10;1.00;;;;;;5049022;28;20426;-83
2023/08/26 04:02:15;;;;;;;9.20;7.70;;;19.90;1.00;;;;;;5049340;28;20389;-83
2023/08/26 04:04:41;;;;;;;8.52;7.57;;;22.20;1.00;;;;;;5049350;28;20385;-83
2023/08/26 04:07:07;;;;;;;10.20;7.67;;;19.40;1.00;;;;;;5060268;28;20913;-83
2023/08/26 04:09:32;;;;;;;13.10;7.30;;;19.10;1.00;;;;;;5068893;28;20409;-83
2023/08/26 04:11:58;;;;;;;8.20;7.45;;;20.80;4.10;;;;;;5072179;28;20438;-83
2023/08/26 04:14:23;;;;;;;10.00;7.37;;;19.00;1.00;;;;;;5060783;28;20393;-83
2023/08/26 04:16:49;;;;;;;8.27;6.97;;;19.20;1.00;;;;;;5054041;28;20389;-83
2023/08/26 04:19:15;;;;;;;8.40;6.83;;;19.00;1.00;;;;;;5053905;28;20412;-83
2023/08/26 04:21:40;;;;;;;6.95;6.30;;;18.90;4.30;;;;;;5052778;28;20420;-83
2023/08/26 04:24:06;;;;;;;9.85;6.70;;;18.90;1.00;;;;;;5063570;28;21012;-84
2023/08/26 04:26:32;;;;;;;10.70;7.53;;;19.60;1.00;;;;;;5072177;28;20396;-83
2023/08/26 04:28:57;;;;;;;7.30;6.60;;;19.50;1.00;;;;;;5073833;28;20996;-83
2023/08/26 04:31:23;;;;;;;9.90;8.02;;;19.50;1.00;;;;;;5073815;28;20395;-83
2023/08/26 04:33:49;;;;;;;8.17;7.00;;;19.20;1.00;;;;;;5054370;28;20399;-83
2023/08/26 04:36:15;;;;;;;9.88;7.22;;;19.20;1.00;;;;;;5052831;28;20390;-84
2023/08/26 04:38:40;;;;;;;14.25;7.90;;;19.10;1.00;;;;;;5052563;28;20443;-83
2023/08/26 04:41:06;;;;;;;8.13;7.32;;;18.90;1.00;;;;;;5053758;28;20387;-83
2023/08/26 04:43:31;;;;;;;8.03;6.17;;;19.80;1.00;;;;;;5060748;28;20412;-82
2023/08/26 04:45:58;;;;;;;9.38;7.45;;;20.90;1.00;;;;;;5052767;28;20381;-83
2023/08/26 04:48:23;;;;;;;8.27;6.43;;;19.50;1.00;;;;;;5067390;28;20396;-83
2023/08/26 04:50:49;;;;;;;6.75;6.05;;;20.40;1.00;;;;;;5075835;28;20379;-83
2023/08/26 04:53:16;;;;;;;9.88;6.97;;;21.80;1.00;;;;;;5074667;28;20421;-82
2023/08/26 04:55:41;;;;;;;7.30;6.18;;;20.60;1.00;;;;;;5054433;28;20779;-83
2023/08/26 04:58:08;;;;;;;9.20;6.53;;;20.00;1.00;;;;;;5053548;28;20409;-83
2023/08/26 05:00:34;;;;;;;7.77;6.70;;;19.40;1.00;;;;;;5051725;28;20977;-83
2023/08/26 05:02:59;;;;;;;6.63;5.90;;;19.70;1.00;;;;;;5052361;28;20401;-83
2023/08/26 05:05:25;;;;;;;8.33;6.67;;;19.50;1.00;;;;;;5053727;28;20384;-82
2023/08/26 05:07:50;;;;;;;6.53;5.93;;;19.50;1.00;;;;;;5071952;28;20378;-82
2023/08/26 05:10:16;;;;;;;7.00;6.40;;;19.70;1.00;;;;;;5073067;28;20747;-83
2023/08/26 05:12:41;;;;;;;9.00;7.30;;;20.90;1.00;;;;;;5072056;28;20386;-83
2023/08/26 05:15:07;;;;;;;8.70;6.80;;;21.20;1.00;;;;;;5073476;28;20871;-83
2023/08/26 05:17:33;;;;;;;7.93;7.00;;;20.00;1.00;;;;;;5055130;28;20397;-83
2023/08/26 05:19:58;;;;;;;8.90;6.87;;;20.50;1.00;;;;;;5071615;28;20415;-83
2023/08/26 05:22:24;;;;;;;9.47;6.60;;;19.90;1.00;;;;;;5073318;28;20410;-83
2023/08/26 05:24:49;;;;;;;7.10;6.40;;;20.70;1.00;;;;;;5073601;28;20408;-83
2023/08/26 05:27:15;;;;;;;7.80;6.30;;;20.10;1.00;;;;;;5085737;28;20388;-83
2023/08/26 05:29:41;;;;;;;6.30;5.53;;;20.10;1.00;;;;;;5088975;28;20402;-83
2023/08/26 05:32:06;;;;;;;8.73;6.00;;;19.70;1.00;;;;;;5075634;28;20483;-83
2023/08/26 05:34:32;;;;;;;6.70;6.05;;;18.80;1.00;;;;;;5053282;28;21015;-83
2023/08/26 05:36:58;;;;;;;7.00;5.60;;;20.30;1.00;;;;;;5051637;28;20378;-83
2023/08/26 05:39:23;;;;;;;7.43;5.65;;;20.10;1.00;;;;;;5053822;28;20385;-83
2023/08/26 05:41:49;;;;;;;8.70;5.28;;;20.00;1.00;;;;;;5053781;28;20397;-83
2023/08/26 05:44:15;;;;;;;6.53;5.67;;;20.00;1.00;;;;;;5064839;28;20457;-83
2023/08/26 05:46:40;;;;;;;8.17;5.50;;;20.30;1.00;;;;;;5073971;28;20411;-83
2023/08/26 05:49:06;;;;;;;8.60;6.17;;;22.20;1.00;;;;;;5063727;28;20401;-83
2023/08/26 05:51:31;;;;;;;7.20;6.10;;;20.40;1.00;;;;;;5058690;28;20401;-84
2023/08/26 05:53:57;;;;;;;7.03;6.30;;;22.70;1.00;;;;;;5072713;28;20389;-84
2023/08/26 05:56:22;;;;;;;7.10;6.00;;;19.50;1.00;;;;;;5057434;28;20393;-84
2023/08/26 05:58:48;;;;;;;7.68;6.60;;;19.60;1.00;;;;;;5065909;28;20859;-85
2023/08/26 06:01:13;;;;;;;6.70;6.10;;;19.80;1.00;;;;;;5054393;28;20393;-84
2023/08/26 06:03:39;;;;;;;9.70;5.80;;;19.30;1.00;;;;;;5053132;28;20405;-84
2023/08/26 06:06:05;;;;;;;7.73;5.80;;;20.80;1.00;;;;;;5068521;28;20381;-84
2023/08/26 06:08:31;;;;;;;7.80;5.20;;;19.90;1.00;;;;;;5051165;28;20382;-84
2023/08/26 06:10:57;;;;;;;6.43;5.57;;;20.00;1.00;;;;;;5053284;28;20460;-85
2023/08/26 06:13:23;;;;;;;7.28;5.53;;;20.30;1.00;;;;;;5061151;28;20397;-84
2023/08/26 06:15:58;;;;;;;6.18;5.43;;;20.10;1.00;;;;;;5051564;28;20432;-84
2023/08/26 06:18:24;;;;;;;7.00;5.20;;;20.10;1.00;;;;;;5057761;28;20406;-84
2023/08/26 06:20:50;;;;;;;8.57;5.90;;;19.90;1.00;;;;;;5053942;28;20397;-85
2023/08/26 06:23:17;;;;;;;6.70;5.93;;;19.80;1.00;;;;;;5048077;28;20562;-84
2023/08/26 06:25:52;;;;;;;6.70;5.95;;;19.50;1.00;;;;;;5052020;28;20442;-85
2023/08/26 06:28:18;;;;;;;6.10;5.50;;;20.20;1.00;;;;;;5050102;28;20889;-84
2023/08/26 06:30:44;;;;;;;7.55;6.07;;;20.60;1.00;;;;;;5057997;28;20394;-84
2023/08/26 06:33:09;;;;;;;7.20;6.47;;;19.90;1.00;;;;;;5050386;28;20400;-84
2023/08/26 06:35:35;;;;;;;7.30;6.10;;;20.40;1.00;;;;;;5054483;28;20426;-84
2023/08/26 06:38:00;;;;;;;7.78;5.90;;;19.80;1.00;;;;;;5070339;28;20415;-84
2023/08/26 06:40:26;;;;;;;8.20;7.40;;;20.30;1.00;;;;;;5071163;28;20386;-83
2023/08/26 06:42:52;;;;;;;9.05;6.88;;;20.00;1.00;;;;;;5065925;28;20413;-84
2023/08/26 06:45:17;;;;;;;7.07;6.37;;;20.00;1.00;;;;;;5051263;28;20793;-84
2023/08/26 06:47:43;;;;;;;8.00;6.60;;;20.00;1.00;;;;;;5102799;22;20429;-84
2023/08/26 06:50:08;;;;;;;7.70;6.70;;;19.70;1.00;;;;;;5053477;28;20383;-85
2023/08/26 06:52:34;;;;;;;7.30;6.70;;;20.20;1.00;;;;;;5053116;28;20461;-85
2023/08/26 06:54:59;;;;;;;8.25;6.20;;;19.60;1.00;;;;;;5042869;28;20379;-85
2023/08/26 06:57:25;;;;;;;9.33;6.40;;;19.80;1.00;;;;;;5043711;28;20383;-84
2023/08/26 06:59:50;;;;;;;6.35;5.75;;;19.40;1.00;;;;;;5044731;28;20401;-83
2023/08/26 07:02:16;;;;;;;6.93;4.83;;;19.40;1.00;;;;;;5046033;28;20375;-83
2023/08/26 07:04:44;;;;;;;4.60;4.20;;;21.60;1.00;;;;;;5047507;28;20489;-84
2023/08/26 07:07:11;;;;;;;7.15;4.53;;;20.10;1.00;;;;;;5043582;28;20422;-85
2023/08/26 07:09:37;;;;;;;6.03;4.70;;;19.70;1.00;;;;;;5041196;28;20383;-85
2023/08/26 07:12:03;;;;;;;10.38;4.60;;;19.40;1.00;;;;;;5040168;28;20844;-84
2023/08/26 07:14:29;;;;;;;5.00;4.43;;;20.20;1.00;;;;;;5039595;28;20411;-85
2023/08/26 07:16:54;;;;;;;6.88;4.22;;;19.70;1.00;;;;;;5044744;28;20406;-84
2023/08/26 07:19:20;;;;;;;4.93;3.93;;;19.40;1.00;;;;;;5044357;28;20398;-84
2023/08/26 07:21:46;;;;;;;4.28;3.85;;;;;;;;;;5042562;28;20477;-85
2023/08/26 07:24:12;;;;;;;7.43;4.55;;;19.80;1.00;;;;;;5043009;28;20447;-85
2023/08/26 07:26:37;;;;;;;5.50;3.47;;;19.30;1.00;;;;;;5026808;28;20765;-85
2023/08/26 07:29:03;;;;;;;5.13;3.43;;;18.80;1.00;;;;;;5021577;28;20388;-84
2023/08/26 07:31:28;;;;;;;4.47;3.70;;;21.60;1.00;;;;;;5027028;28;20387;-85
2023/08/26 07:33:54;;;;;;;6.07;4.10;;;21.60;1.00;;;;;;5043884;28;20399;-84
2023/08/26 07:36:20;;;;;;;6.88;4.40;;;19.40;1.00;;;;;;5023588;28;20395;-85
2023/08/26 07:38:45;;;;;;;6.80;4.43;;;19.70;1.00;;;;;;5018240;28;20418;-84
2023/08/26 07:41:11;;;;;;;6.13;4.10;;;19.50;1.00;;;;;;5010754;28;20516;-84
2023/08/26 07:43:37;;;;;;;5.47;4.50;;;19.80;1.00;;;;;;5014147;28;20917;-84
2023/08/26 07:46:03;;;;;;;4.60;4.20;;;19.20;1.00;;;;;;5015173;28;20398;-84
2023/08/26 07:48:29;;;;;;;5.72;3.50;;;19.30;1.00;;;;;;5018575;28;20409;-85
2023/08/26 07:50:55;;;;;;;5.00;3.70;;;19.40;1.00;;;;;;5037953;28;20411;-85
2023/08/26 07:53:20;;;;;;;4.82;3.67;;;21.00;1.00;;;;;;5012238;28;20914;-85
2023/08/26 07:55:46;;;;;;;4.33;3.60;;;19.30;1.00;;;;;;5013399;28;20508;-85
2023/08/26 07:58:11;;;;;;;4.95;3.70;;;19.80;1.00;;;;;;5016761;28;20418;-85
2023/08/26 08:00:37;;;;;;;7.93;3.50;;;19.00;1.00;;;;;;5017712;28;20408;-85
2023/08/26 08:03:03;;;;;;;3.83;3.17;;;19.30;1.00;;;;;;5019003;28;20409;-86
2023/08/26 08:05:28;;;;;;;6.67;3.70;;;19.30;1.00;;;;;;5016749;28;20754;-85
2023/08/26 08:07:54;;;;;;;3.57;3.27;;;19.60;1.00;;;;;;5019004;28;20454;-86
2023/08/26 08:10:20;;;;;;;5.03;3.27;;;19.10;1.00;;;;;;5012661;28;20406;-84
2023/08/26 08:12:45;;;;;;;4.10;3.47;;;22.00;1.00;;;;;;5012572;28;20483;-84
2023/08/26 08:15:11;;;;;;;4.90;3.30;;;20.70;1.00;;;;;;5019502;28;20484;-84
2023/08/26 08:17:37;;;;;;;5.90;3.65;;;19.80;1.00;;;;;;5016886;28;20403;-84
2023/08/26 08:20:03;;;;;;;5.13;4.05;;;19.00;1.00;;;;;;5015790;28;20392;-85
2023/08/26 08:22:43;;;;;;;4.70;3.60;;;19.30;1.00;;;;;;5016380;28;20385;-84
2023/08/26 08:25:09;;;;;;;6.40;3.20;;;21.20;1.00;;;;;;5020793;28;20388;-83
2023/08/26 08:27:36;;;;;;;4.47;3.45;;;19.50;1.00;;;;;;5021395;28;20385;-84
2023/08/26 08:30:03;;;;;;;5.22;3.70;;;21.70;1.00;;;;;;5017042;28;20431;-85
2023/08/26 08:32:28;;;;;;;6.10;3.40;;;19.80;1.00;;;;;;5012513;28;20404;-85
2023/08/26 08:34:54;;;;;;;4.40;3.30;;;21.80;1.00;;;;;;5036242;28;20393;-85
2023/08/26 08:37:20;;;;;;;5.40;3.20;;;19.60;1.00;;;;;;5028791;28;20402;-84
2023/08/26 08:39:46;;;;;;;10.13;3.45;;;20.00;1.00;;;;;;5017093;28;20891;-84
2023/08/26 08:42:15;;;;;;;5.38;3.10;;;20.00;1.00;;;;;;5008563;28;20426;-84
2023/08/26 08:44:41;;;;;;;6.53;3.67;;;19.80;1.00;;;;;;5013187;28;20423;-84
2023/08/26 08:47:08;;;;;;;5.47;3.25;;;20.40;1.00;;;;;;5024763;28;20395;-84
2023/08/26 08:49:35;;;;;;;3.90;2.75;;;20.30;1.00;;;;;;5033468;28;20429;-84
2023/08/26 08:52:07;;;;;;;4.40;3.38;;;22.70;1.00;;;;;;5020059;28;20459;-85
2023/08/26 08:54:34;;;;;;;3.83;2.70;;;20.40;1.00;;;;;;5021813;28;20805;-84
2023/08/26 08:57:03;;;;;;;3.40;3.10;;;20.00;1.00;;;;;;5009438;28;20403;-83
2023/08/26 08:59:32;;;;;;;5.40;2.90;;;21.50;1.00;;;;;;5024468;28;20888;-83
2023/08/26 09:01:58;;;;;;;3.15;2.30;;;20.00;1.00;;;;;;5016974;28;20764;-84
2023/08/26 09:04:25;;;;;;;4.93;2.97;;;20.70;1.00;;;;;;5027153;28;20404;-82
2023/08/26 09:06:51;;;;;;;3.80;2.63;;;20.90;1.00;;;;;;5016898;28;20413;-79
2023/08/26 09:09:18;;;;;;;4.10;2.30;;;20.00;1.00;;;;;;5013380;28;20481;-80
2023/08/26 09:11:43;;;;;;;5.30;2.50;;;20.50;1.00;;;;;;5018245;28;20479;-78
2023/08/26 09:14:09;;;;;;;2.97;2.40;;;20.40;1.00;;;;;;5007857;28;20509;-78
2023/08/26 09:16:35;;;;;;;4.07;2.60;;;21.70;1.00;;;;;;4999197;28;20921;-78
2023/08/26 09:19:03;;;;;;;4.22;2.42;;;20.70;1.00;;;;;;4998807;28;20437;-78
2023/08/26 09:21:28;;;;;;;4.45;2.60;;;20.40;1.00;;;;;;5009134;28;20391;-78
2023/08/26 09:23:55;;;;;;;3.60;2.83;;;20.70;1.00;;;;;;5012102;28;20478;-78
2023/08/26 09:26:23;;;;;;;3.00;2.58;;;20.30;1.00;;;;;;5016686;28;20412;-78
2023/08/26 09:28:53;;;;;;;2.88;2.40;;;20.50;1.00;;;;;;5006745;28;20406;-78
2023/08/26 09:31:19;;;;;;;4.57;2.38;;;20.70;1.00;;;;;;5017312;28;20388;-78
2023/08/26 09:33:50;;;;;;;3.93;2.97;;;20.40;1.00;;;;;;5005032;28;20391;-78
2023/08/26 09:36:16;;;;;;;3.00;2.70;;;19.80;1.00;;;;;;5010575;28;20455;-78
2023/08/26 09:38:44;;;;;;;5.03;2.73;;;20.10;1.00;;;;;;5002995;28;20817;-78
2023/08/26 09:41:10;;;;;;;3.00;2.60;;;20.40;1.00;;;;;;5002940;28;20390;-79
2023/08/26 09:43:40;;;;;;;5.25;2.80;;;20.90;1.00;;;;;;5006521;28;20436;-78
2023/08/26 09:46:05;;;;;;;3.80;2.70;;;19.90;1.00;;;;;;5001608;28;20398;-78
2023/08/26 09:48:31;;;;;;;4.17;2.80;;;19.90;1.00;;;;;;5010096;28;20495;-78
2023/08/26 09:50:56;;;;;;;3.50;2.80;;;20.60;1.00;;;;;;4997186;28;20390;-78
2023/08/26 09:53:32;;;;;;;3.97;3.10;;;19.40;1.00;;;;;;5011867;28;20399;-78
2023/08/26 09:55:59;;;;;;;4.80;2.67;;;19.50;1.00;;;;;;5008018;28;20447;-78
2023/08/26 09:58:25;;;;;;;5.65;3.15;;;19.30;1.00;;;;;;5009155;28;20418;-78
2023/08/26 10:00:53;;;;;;;4.30;2.85;;;19.90;1.00;;;;;;5015248;28;20492;-78
2023/08/26 10:03:23;;;;;;;4.78;2.88;;;19.50;1.00;;;;;;5009944;28;20448;-79
2023/08/26 10:05:53;;;;;;;3.95;3.20;;;20.50;1.00;;;;;;5014051;28;20414;-78
2023/08/26 10:08:21;;;;;;;4.95;3.00;;;19.90;1.00;;;;;;5007749;28;20411;-79
2023/08/26 10:10:52;;;;;;;4.30;2.97;;;20.00;1.00;;;;;;5005499;28;20462;-79
2023/08/26 10:13:25;;;;;;;2.70;2.50;;;19.60;1.00;;;;;;5016091;28;20423;-80
2023/08/26 10:15:52;;;;;;;5.00;2.90;;;19.70;1.00;;;;;;5005143;28;20414;-86
2023/08/26 10:18:39;;;;;;;3.53;2.92;;;19.90;1.00;;;;;;5015828;28;20396;-82
2023/08/26 10:21:05;;;;;;;3.83;3.00;;;21.90;1.00;;;;;;5014410;28;20955;-82
2023/08/26 10:23:32;;;;;;;5.32;3.10;;;22.20;1.00;;;;;;5002325;28;20418;-82
2023/08/26 10:25:58;;;;;;;4.60;3.20;;;19.80;1.00;;;;;;5014841;28;20990;-81
2023/08/26 10:28:25;;;;;;;4.88;3.10;;;19.40;1.00;;;;;;5007136;28;20469;-81
2023/08/26 10:30:53;;;;;;;3.35;2.97;;;19.40;1.00;;;;;;5001673;28;20406;-82
2023/08/26 10:33:19;;;;;;;5.10;3.75;;;19.60;1.00;;;;;;5004597;28;20398;-82
2023/08/26 10:35:58;;;;;;;3.90;3.55;;;20.00;1.00;;;;;;5011640;28;20483;-82
2023/08/26 10:38:23;;;;;;;5.93;3.60;;;20.20;1.00;;;;;;5015163;28;20400;-83
2023/08/26 10:40:49;;;;;;;4.60;3.40;;;19.70;1.00;;;;;;5020013;28;20892;-82
2023/08/26 10:43:15;;;;;;;6.60;3.60;;;19.90;1.00;;;;;;5023212;28;20439;-82
2023/08/26 10:45:47;;;;;;;7.53;3.60;;;19.30;1.00;;;;;;5019960;28;20413;-82
2023/08/26 10:48:12;;;;;;;7.32;3.17;;;19.80;1.00;;;;;;5011514;28;20439;-82
2023/08/26 10:50:40;;;;;;;5.20;3.70;;;19.90;1.00;;;;;;5006305;28;20408;-82
2023/08/26 10:53:21;;;;;;;6.22;3.78;;;19.70;1.00;;;;;;5015437;28;20419;-82
2023/08/26 10:55:54;;;;;;;3.58;3.22;;;19.60;1.00;;;;;;5017686;28;20899;-82
2023/08/26 10:58:21;;;;;;;8.80;3.85;;;19.90;1.00;;;;;;5014525;28;20405;-82
2023/08/26 11:00:48;;;;;;;5.88;3.70;;;19.10;1.00;;;;;;5016275;28;20396;-82
2023/08/26 11:03:18;;;;;;;5.00;3.28;;;19.30;1.00;;;;;;5035945;28;20783;-83
2023/08/26 11:05:45;;;;;;;7.18;4.28;;;19.50;1.00;;;;;;5028162;28;20397;-81
2023/08/26 11:08:11;;;;;;;4.13;3.30;;;19.90;1.00;;;;;;5013009;28;20487;-82
2023/08/26 11:10:41;;;;;;;5.30;3.00;;;19.70;1.00;;;;;;5012135;28;20989;-81
2023/08/26 11:13:09;;;;;;;5.72;3.60;;;21.80;1.00;;;;;;5030084;28;20419;-80
2023/08/26 11:15:40;;;;;;;4.18;3.20;;;19.10;1.00;;;;;;5025726;28;20404;-80
2023/08/26 11:18:07;;;;;;;6.25;3.70;;;19.20;1.00;;;;;;5012815;28;20809;-81
2023/08/26 11:20:32;;;;;;;5.75;3.58;;;19.50;1.00;;;;;;5014205;28;20441;-81
2023/08/26 11:22:58;;;;;;;8.30;3.50;;;19.20;1.00;;;;;;5023501;28;20451;-81
2023/08/26 11:25:24;;;;;;;4.85;3.40;;;19.00;1.00;;;;;;5029045;28;20384;-81
2023/08/26 11:27:51;;;;;;;7.03;3.60;;;19.40;1.00;;;;;;5007194;28;20857;-84
2023/08/26 11:30:17;;;;;;;4.30;3.50;;;18.90;1.00;;;;;;5012065;28;20399;-84
2023/08/26 11:32:49;;;;;;;5.67;4.00;;;18.80;1.00;;;;;;5008549;28;20890;-84
2023/08/26 11:35:15;;;;;;;4.85;3.80;;;19.90;1.00;;;;;;5008461;28;20388;-85
2023/08/26 11:37:42;;;;;;;5.97;4.03;;;19.20;1.00;;;;;;5010288;28;20380;-85
2023/08/26 11:40:09;;;;;;;5.40;4.10;;;18.00;1.00;;;;;;5008881;28;20403;-76
2023/08/26 11:42:34;;;;;;;5.03;3.60;;;18.50;1.00;;;;;;5021940;28;20401;-78
2023/08/26 11:45:00;;;;;;;7.47;4.57;;;19.10;1.00;;;;;;5024599;28;20407;-78
2023/08/26 11:47:26;;;;;;;6.32;3.90;;;19.00;1.00;;;;;;5025427;28;20453;-78
2023/08/26 11:49:55;;;;;;;5.95;4.30;;;18.50;1.00;;;;;;5014854;28;20388;-79
2023/08/26 11:52:34;;;;;;;5.18;3.95;;;18.40;1.00;;;;;;5011822;28;20392;-78
2023/08/26 11:55:03;;;;;;;4.70;3.83;;;19.00;1.00;;;;;;5011159;28;20420;-78
2023/08/26 11:57:29;;;;;;;5.60;3.90;;;18.40;1.00;;;;;;5012293;28;20381;-78
2023/08/26 12:00:09;;;;;;;4.93;3.70;;;18.40;1.00;;;;;;5012390;28;20385;-79
2023/08/26 12:02:35;;;;;;;4.60;3.35;;;18.30;1.00;;;;;;5012322;28;20813;-78
2023/08/26 12:05:00;;;;;;;4.40;3.60;;;18.00;1.00;;;;;;4997772;28;20404;-78
2023/08/26 12:07:29;;;;;;;6.45;3.95;;;18.00;1.00;;;;;;4992789;28;20467;-79
2023/08/26 12:09:55;;;;;;;6.00;4.45;;;18.60;1.00;;;;;;4992020;28;20387;-79
2023/08/26 12:12:21;;;;;;;6.57;4.93;;;18.10;1.00;;;;;;4992504;28;20445;-79
2023/08/26 12:14:46;;;;;;;7.35;4.20;;;18.10;1.00;;;;;;5008277;28;20396;-79
2023/08/26 12:17:13;;;;;;;5.53;5.03;;;18.60;1.00;;;;;;5010738;28;20392;-79
2023/08/26 12:19:41;;;;;;;6.53;4.53;;;18.60;1.00;;;;;;5011907;28;20393;-78
2023/08/26 12:22:07;;;;;;;5.40;4.40;;;19.30;1.00;;;;;;5012118;28;20396;-79
2023/08/26 12:24:36;;;;;;;4.60;4.10;;;18.00;1.00;;;;;;4997577;28;20490;-79
2023/08/26 12:27:12;;;;;;;4.53;4.10;;;18.20;1.00;;;;;;4992465;28;20394;-79
2023/08/26 12:29:38;;;;;;;5.57;4.63;;;18.00;1.00;;;;;;4992145;28;20390;-78
2023/08/26 12:32:04;;;;;;;4.78;4.13;;;18.40;1.00;;;;;;4991558;28;20733;-78
2023/08/26 12:34:30;;;;;;;6.20;3.67;;;18.30;1.00;;;;;;5030388;28;20401;-78
2023/08/26 12:36:57;;;;;;;5.07;3.70;;;18.50;1.00;;;;;;5016895;28;20387;-79
2023/08/26 12:39:25;;;;;;;5.70;4.28;;;18.60;1.00;;;;;;5021136;28;21204;-78
2023/08/26 12:41:52;;;;;;;5.22;4.18;;;17.80;1.00;;;;;;5011897;28;20454;-79
2023/08/26 12:44:17;;;;;;;5.65;4.50;;;18.10;1.00;;;;;;5022171;28;20478;-81
2023/08/26 12:46:43;;;;;;;6.13;4.20;;;18.10;1.00;;;;;;5008683;28;20923;-86
2023/08/26 12:49:09;;;;;;;5.60;4.30;;;18.40;1.00;;;;;;5016748;28;20391;-84
2023/08/26 12:51:34;;;;;;;4.57;3.97;;;18.50;1.00;;;;;;5008128;28;20414;-86
2023/08/26 12:54:00;;;;;;;5.50;3.20;;;17.40;1.00;;;;;;5012828;28;20413;-87
2023/08/26 12:56:25;;;;;;;6.77;3.80;;;18.30;1.00;;;;;;4993548;28;20469;-87
2023/08/26 12:58:51;;;;;;;5.10;3.93;;;17.90;1.00;;;;;;5008372;28;20413;-87